createdAt,value
2023-01-23T00:00:12.044Z,96.30
2023-01-23T00:02:40.219Z,75.97
2023-01-23T00:05:08.992Z,92.70
2023-01-23T00:07:37.132Z,94.03
2023-01-23T00:10:05.548Z,108.23
2023-01-23T00:12:35.032Z,94.70
2023-01-23T00:15:04.846Z,94.80
2023-01-23T00:17:34.068Z,90.47
2023-01-23T00:20:02.314Z,102.77
2023-01-23T00:22:30.442Z,86.60
2023-01-23T00:24:58.606Z,103.00
2023-01-23T00:27:26.748Z,95.97
2023-01-23T00:29:56.284Z,86.00
2023-01-23T00:32:24.455Z,95.07
2023-01-23T00:34:52.618Z,99.53
2023-01-23T00:37:20.792Z,88.07
2023-01-23T00:39:50.836Z,106.90
2023-01-23T00:42:20.368Z,84.73
2023-01-23T00:44:48.528Z,87.23
2023-01-23T00:47:18.001Z,91.57
2023-01-23T00:49:46.236Z,90.83
2023-01-23T00:52:14.375Z,108.93
2023-01-23T00:54:43.010Z,85.83
2023-01-23T00:57:11.171Z,92.67
2023-01-23T00:59:39.287Z,89.70
2023-01-23T01:02:07.703Z,82.80
2023-01-23T01:04:37.259Z,104.27
2023-01-23T01:07:05.385Z,88.17
2023-01-23T01:09:33.547Z,90.67
2023-01-23T01:12:01.702Z,83.40
2023-01-23T01:14:29.881Z,82.87
2023-01-23T01:16:58.685Z,91.07
2023-01-23T01:19:28.172Z,107.37
2023-01-23T01:21:57.666Z,92.07
2023-01-23T01:24:26.561Z,96.53
2023-01-23T01:26:54.733Z,95.00
2023-01-23T01:29:22.926Z,83.47
2023-01-23T01:31:51.116Z,76.43
2023-01-23T01:34:19.288Z,80.03
2023-01-23T01:36:47.442Z,79.20
2023-01-23T01:39:16.918Z,99.73
2023-01-23T01:41:45.167Z,86.80
2023-01-23T01:44:17.415Z,83.03
2023-01-23T01:46:46.733Z,81.90
2023-01-23T01:49:17.285Z,90.53
2023-01-23T01:51:47.367Z,86.00
2023-01-23T01:54:18.865Z,83.90
2023-01-23T01:56:49.010Z,86.00
2023-01-23T01:59:17.774Z,96.10
2023-01-23T02:01:47.790Z,89.80
2023-01-23T02:04:16.650Z,89.60
2023-01-23T02:06:45.337Z,80.13
2023-01-23T02:09:18.095Z,88.37
2023-01-23T02:11:47.640Z,98.37
2023-01-23T02:14:15.820Z,99.63
2023-01-23T02:16:50.150Z,85.67
2023-01-23T02:19:26.322Z,98.03
2023-01-23T02:21:56.307Z,87.70
2023-01-23T02:24:28.089Z,90.23
2023-01-23T02:26:57.808Z,79.07
2023-01-23T02:29:25.941Z,95.40
2023-01-23T02:31:56.174Z,92.13
2023-01-23T02:34:25.955Z,92.10
2023-01-23T02:36:54.161Z,90.37
2023-01-23T02:39:22.463Z,95.73
2023-01-23T02:41:51.673Z,100.63
2023-01-23T02:44:26.175Z,91.50
2023-01-23T02:46:54.510Z,90.27
2023-01-23T02:49:22.895Z,89.73
2023-01-23T02:51:51.226Z,87.83
2023-01-23T02:54:19.551Z,93.73
2023-01-23T02:56:47.713Z,93.20
2023-01-23T02:59:33.431Z,101.87
2023-01-23T03:02:04.041Z,94.70
2023-01-23T03:04:32.216Z,99.80
2023-01-23T03:07:00.342Z,95.50
2023-01-23T03:09:28.999Z,94.67
2023-01-23T03:11:57.211Z,96.60
2023-01-23T03:14:25.741Z,86.00
2023-01-23T03:16:55.137Z,103.27
2023-01-23T03:19:26.614Z,93.70
2023-01-23T03:21:55.241Z,100.90
2023-01-23T03:24:23.676Z,89.93
2023-01-23T03:26:52.361Z,91.60
2023-01-23T03:29:39.949Z,85.50
2023-01-23T03:32:08.397Z,80.23
2023-01-23T03:34:38.054Z,80.07
2023-01-23T03:37:07.853Z,91.77
2023-01-23T03:39:53.702Z,82.80
2023-01-23T03:42:22.101Z,84.70
2023-01-23T03:44:50.356Z,78.23
2023-01-23T03:47:18.510Z,84.80
2023-01-23T03:49:48.003Z,84.07
2023-01-23T03:52:16.168Z,85.33
2023-01-23T03:54:44.408Z,79.07
2023-01-23T03:57:12.697Z,74.73
2023-01-23T03:59:40.835Z,71.27
2023-01-23T04:02:09.009Z,81.80
2023-01-23T04:04:37.150Z,79.60
2023-01-23T04:07:07.255Z,74.03
2023-01-23T04:09:35.491Z,72.40
2023-01-23T04:12:03.684Z,69.90
2023-01-23T04:14:37.359Z,70.13
2023-01-23T04:17:05.732Z,64.23
2023-01-23T04:19:34.356Z,71.77
2023-01-23T04:22:02.793Z,65.57
2023-01-23T04:24:32.386Z,71.77
2023-01-23T04:27:00.578Z,65.80
2023-01-23T04:29:28.763Z,67.00
2023-01-23T04:31:56.965Z,59.17
2023-01-23T04:34:25.111Z,63.53
2023-01-23T04:36:53.251Z,71.53
2023-01-23T04:39:21.409Z,56.43
2023-01-23T04:41:50.959Z,65.07
2023-01-23T04:44:22.273Z,62.43
2023-01-23T04:46:50.785Z,59.90
2023-01-23T04:49:19.452Z,56.30
2023-01-23T04:51:48.257Z,64.00
2023-01-23T04:54:16.463Z,60.77
2023-01-23T04:56:44.683Z,62.53
2023-01-23T04:59:14.315Z,63.20
2023-01-23T05:01:42.490Z,64.93
2023-01-23T05:04:10.650Z,58.90
2023-01-23T05:06:38.781Z,61.80
2023-01-23T05:09:07.056Z,63.13
2023-01-23T05:11:35.226Z,59.17
2023-01-23T05:14:03.364Z,55.80
2023-01-23T05:16:32.835Z,52.77
2023-01-23T05:19:01.061Z,54.27
2023-01-23T05:21:29.222Z,58.97
2023-01-23T05:23:57.439Z,63.47
2023-01-23T05:26:25.731Z,56.07
2023-01-23T05:28:53.917Z,55.87
2023-01-23T05:31:22.186Z,55.83
2023-01-23T05:33:51.716Z,57.03
2023-01-23T05:36:19.867Z,53.37
2023-01-23T05:38:48.308Z,60.23
2023-01-23T05:41:16.505Z,49.10
2023-01-23T05:43:44.728Z,53.20
2023-01-23T05:46:12.923Z,58.60
2023-01-23T05:48:41.118Z,49.50
2023-01-23T05:51:10.769Z,51.63
2023-01-23T05:53:38.961Z,56.67
2023-01-23T05:56:07.994Z,52.37
2023-01-23T05:58:36.225Z,46.57
2023-01-23T06:01:04.477Z,48.13
2023-01-23T06:03:32.653Z,50.87
2023-01-23T06:06:02.687Z,47.87
2023-01-23T06:08:32.174Z,56.37
2023-01-23T06:11:00.469Z,48.50
2023-01-23T06:13:29.062Z,51.73
2023-01-23T06:15:58.091Z,52.00
2023-01-23T06:18:26.557Z,48.43
2023-01-23T06:20:59.096Z,44.13
2023-01-23T06:23:27.345Z,44.27
2023-01-23T06:26:00.769Z,53.07
2023-01-23T06:28:29.078Z,53.60
2023-01-23T06:30:57.334Z,51.77
2023-01-23T06:33:25.923Z,48.80
2023-01-23T06:35:58.492Z,48.00
2023-01-23T06:38:26.661Z,53.13
2023-01-23T06:40:54.918Z,49.90
2023-01-23T06:43:24.904Z,44.83
2023-01-23T06:45:53.338Z,58.47
2023-01-23T06:48:21.927Z,46.40
2023-01-23T06:50:50.379Z,47.23
2023-01-23T06:53:19.044Z,43.77
2023-01-23T06:55:47.281Z,46.30
2023-01-23T06:58:15.462Z,49.97
2023-01-23T07:00:45.169Z,42.60
2023-01-23T07:03:13.825Z,42.70
2023-01-23T07:05:43.379Z,47.43
2023-01-23T07:08:11.620Z,45.27
2023-01-23T07:10:39.974Z,42.07
2023-01-23T07:13:08.459Z,44.23
2023-01-23T07:15:36.612Z,41.70
2023-01-23T07:18:06.214Z,46.67
2023-01-23T07:20:34.377Z,45.60
2023-01-23T07:23:04.671Z,41.10
2023-01-23T07:25:32.999Z,40.73
2023-01-23T07:28:01.131Z,40.77
2023-01-23T07:30:29.408Z,40.33
2023-01-23T07:32:58.134Z,43.37
2023-01-23T07:35:28.153Z,39.53
2023-01-23T07:37:56.372Z,39.43
2023-01-23T07:40:24.727Z,38.80
2023-01-23T07:42:52.953Z,44.47
2023-01-23T07:45:21.134Z,40.73
2023-01-23T07:47:49.302Z,39.37
2023-01-23T07:50:18.028Z,42.17
2023-01-23T07:52:47.657Z,44.70
2023-01-23T07:55:15.831Z,35.47
2023-01-23T07:57:44.016Z,38.90
2023-01-23T08:00:12.605Z,39.80
2023-01-23T08:02:41.106Z,36.30
2023-01-23T08:05:09.657Z,41.67
2023-01-23T08:07:37.821Z,34.93
2023-01-23T08:10:08.204Z,36.53
2023-01-23T08:12:36.622Z,41.90
2023-01-23T08:15:04.904Z,36.67
2023-01-23T08:17:33.077Z,37.37
2023-01-23T08:20:01.231Z,36.30
2023-01-23T08:22:29.459Z,36.33
2023-01-23T08:24:57.681Z,37.77
2023-01-23T08:27:27.178Z,34.97
2023-01-23T08:29:55.333Z,35.93
2023-01-23T08:32:23.477Z,35.83
2023-01-23T08:34:51.647Z,39.07
2023-01-23T08:37:19.805Z,36.93
2023-01-23T08:39:47.952Z,36.70
2023-01-23T08:42:16.091Z,36.90
2023-01-23T08:44:45.604Z,35.17
2023-01-23T08:47:13.867Z,36.30
2023-01-23T08:49:42.005Z,34.67
2023-01-23T08:52:10.188Z,33.77
2023-01-23T08:54:38.372Z,35.77
2023-01-23T08:57:06.575Z,33.70
2023-01-23T08:59:34.753Z,33.20
2023-01-23T09:02:04.268Z,33.90
2023-01-23T09:04:32.591Z,30.97
2023-01-23T09:07:00.775Z,31.13
2023-01-23T09:09:30.618Z,29.80
2023-01-23T09:11:58.806Z,32.30
2023-01-23T09:14:26.982Z,29.87
2023-01-23T09:16:55.184Z,29.43
2023-01-23T09:19:24.752Z,32.87
2023-01-23T09:21:54.694Z,35.00
2023-01-23T09:24:22.841Z,31.37
2023-01-23T09:26:51.003Z,26.23
2023-01-23T09:29:19.140Z,28.20
2023-01-23T09:31:47.370Z,30.13
2023-01-23T09:34:17.183Z,29.97
2023-01-23T09:36:46.951Z,29.50
2023-01-23T09:39:15.165Z,34.17
2023-01-23T09:41:45.314Z,30.37
2023-01-23T09:44:16.969Z,29.23
2023-01-23T09:46:47.936Z,28.30
2023-01-23T09:49:21.155Z,24.87
2023-01-23T09:51:54.455Z,26.43
2023-01-23T09:54:30.213Z,28.67
2023-01-23T09:56:59.285Z,33.57
2023-01-23T09:59:31.295Z,26.17
2023-01-23T10:01:59.543Z,31.87
2023-01-23T10:04:27.756Z,28.20
2023-01-23T10:07:11.118Z,27.37
2023-01-23T10:09:46.492Z,27.60
2023-01-23T10:12:20.088Z,25.30
2023-01-23T10:15:00.145Z,24.53
2023-01-23T10:17:31.542Z,25.50
2023-01-23T10:20:11.723Z,24.77
2023-01-23T10:22:46.643Z,23.80
2023-01-23T10:25:17.823Z,25.70
2023-01-23T10:27:47.730Z,23.93
2023-01-23T10:30:20.504Z,27.27
2023-01-23T10:32:51.055Z,26.03
2023-01-23T10:35:20.644Z,27.17
2023-01-23T10:37:54.059Z,26.97
2023-01-23T10:40:44.111Z,27.40
2023-01-23T10:43:14.700Z,26.43
2023-01-23T10:45:42.976Z,25.07
2023-01-23T10:48:30.070Z,28.17
2023-01-23T10:50:58.310Z,31.33
2023-01-23T10:53:28.207Z,24.30
2023-01-23T10:55:57.416Z,26.73
2023-01-23T10:58:30.043Z,30.20
2023-01-23T11:00:58.398Z,27.83
2023-01-23T11:03:28.712Z,28.70
2023-01-23T11:05:57.425Z,24.93
2023-01-23T11:08:28.714Z,29.57
2023-01-23T11:11:13.318Z,25.87
2023-01-23T11:13:41.484Z,31.60
2023-01-23T11:16:10.197Z,28.07
2023-01-23T11:18:43.020Z,26.43
2023-01-23T11:21:21.544Z,29.33
2023-01-23T11:23:51.066Z,28.20
2023-01-23T11:26:32.468Z,31.63
2023-01-23T11:29:00.655Z,25.07
2023-01-23T11:31:29.183Z,27.00
2023-01-23T11:33:59.397Z,30.00
2023-01-23T11:36:52.684Z,27.83
2023-01-23T11:39:28.560Z,26.60
2023-01-23T11:41:56.721Z,30.30
2023-01-23T11:44:25.514Z,29.00
2023-01-23T11:47:02.429Z,27.00
2023-01-23T11:49:39.139Z,29.03
2023-01-23T11:52:14.802Z,26.53
2023-01-23T11:54:55.163Z,27.87
2023-01-23T11:57:25.554Z,31.63
2023-01-23T12:00:06.593Z,28.30
2023-01-23T12:02:52.827Z,29.30
2023-01-23T12:05:28.781Z,27.77
2023-01-23T12:08:05.002Z,30.83
2023-01-23T12:10:37.756Z,27.37
2023-01-23T12:13:13.287Z,26.67
2023-01-23T12:15:45.446Z,27.73
2023-01-23T12:18:18.996Z,24.37
2023-01-23T12:20:54.320Z,25.93
2023-01-23T12:23:27.432Z,33.00
2023-01-23T12:26:02.529Z,26.00
2023-01-23T12:28:39.178Z,27.40
2023-01-23T12:31:13.219Z,27.03
2023-01-23T12:33:53.245Z,27.87
2023-01-23T12:36:29.942Z,29.23
2023-01-23T12:39:01.331Z,29.37
2023-01-23T12:41:36.337Z,27.80
2023-01-23T12:44:06.921Z,30.00
2023-01-23T12:46:37.504Z,24.40
2023-01-23T12:49:15.113Z,26.70
2023-01-23T12:51:44.722Z,25.03
2023-01-23T12:54:16.403Z,27.50
2023-01-23T12:56:46.649Z,25.87
2023-01-23T12:59:19.536Z,27.03
2023-01-23T13:01:52.181Z,25.80
2023-01-23T13:04:30.172Z,27.37
2023-01-23T13:07:03.503Z,27.00
2023-01-23T13:09:40.037Z,29.77
2023-01-23T13:12:22.172Z,28.20
2023-01-23T13:15:12.830Z,26.40
2023-01-23T13:17:40.204Z,24.53
2023-01-23T13:20:39.453Z,26.57
2023-01-23T13:23:24.067Z,24.87
2023-01-23T13:25:52.879Z,27.67
2023-01-23T13:28:44.028Z,28.37
2023-01-23T13:31:25.801Z,28.70
2023-01-23T13:33:58.796Z,25.97
2023-01-23T13:36:40.897Z,26.57
2023-01-23T13:39:24.003Z,28.87
2023-01-23T13:41:53.456Z,26.30
2023-01-23T13:44:40.306Z,23.90
2023-01-23T14:21:42.438Z,27.47
2023-01-23T14:24:21.431Z,24.97
2023-01-23T14:26:50.556Z,24.13
2023-01-23T14:29:22.593Z,21.90
2023-01-23T14:31:51.910Z,24.90
2023-01-23T14:34:21.240Z,24.47
2023-01-23T14:36:52.794Z,26.40
2023-01-23T14:39:22.422Z,25.07
2023-01-23T14:41:51.168Z,24.67
2023-01-23T14:44:21.631Z,24.50
2023-01-23T14:46:52.729Z,22.97
2023-01-23T14:49:25.260Z,21.83
2023-01-23T14:51:59.547Z,28.20
2023-01-23T14:54:32.931Z,21.17
2023-01-23T14:57:04.426Z,23.83
2023-01-23T14:59:34.564Z,20.60
2023-01-23T15:02:13.046Z,23.80
2023-01-23T15:04:44.563Z,21.00
2023-01-23T15:07:16.914Z,24.43
2023-01-23T15:09:46.456Z,20.87
2023-01-23T15:12:17.827Z,23.70
2023-01-23T15:14:46.426Z,22.50
2023-01-23T15:17:16.251Z,22.17
2023-01-23T15:19:45.292Z,19.87
2023-01-23T15:22:20.354Z,25.43
2023-01-23T15:24:48.578Z,24.93
2023-01-23T15:27:27.079Z,23.80
2023-01-23T15:30:10.173Z,25.00
2023-01-23T15:32:40.577Z,22.17
2023-01-23T15:35:16.529Z,25.63
2023-01-23T15:37:49.547Z,22.83
2023-01-23T15:40:18.720Z,25.13
2023-01-23T15:43:01.849Z,21.87
2023-01-23T15:45:29.981Z,22.50
2023-01-23T15:47:58.132Z,26.80
2023-01-23T15:50:27.178Z,24.77
2023-01-23T15:52:57.519Z,22.00
2023-01-23T15:55:26.913Z,23.93
2023-01-23T15:57:55.289Z,23.53
2023-01-23T16:00:25.680Z,23.60
2023-01-23T16:02:57.402Z,21.30
2023-01-23T16:05:26.795Z,18.97
2023-01-23T16:07:55.640Z,18.33
2023-01-23T16:10:26.364Z,21.00
2023-01-23T16:12:55.269Z,20.97
2023-01-23T16:15:24.462Z,22.60
2023-01-23T16:17:53.267Z,24.40
2023-01-23T16:20:22.286Z,25.27
2023-01-23T16:22:52.179Z,21.87
2023-01-23T16:25:22.387Z,21.73
2023-01-23T16:27:53.043Z,23.53
2023-01-23T16:30:21.632Z,19.97
2023-01-23T16:32:50.101Z,23.67
2023-01-23T16:35:18.313Z,22.50
2023-01-23T16:37:48.037Z,20.40
2023-01-23T16:40:16.974Z,19.37
2023-01-23T16:42:45.768Z,22.30
2023-01-23T16:45:19.595Z,19.03
2023-01-23T16:47:47.902Z,20.03
2023-01-23T16:50:16.812Z,20.03
2023-01-23T16:52:46.785Z,20.00
2023-01-23T16:55:20.553Z,21.40
2023-01-23T16:57:49.596Z,21.50
2023-01-23T17:00:33.476Z,19.00
2023-01-23T17:03:03.556Z,18.27
2023-01-23T17:05:32.039Z,20.77
2023-01-23T17:08:00.403Z,27.20
2023-01-23T17:10:41.238Z,22.47
2023-01-23T17:13:14.865Z,19.83
2023-01-23T17:15:44.448Z,24.87
2023-01-23T17:18:18.500Z,19.33
2023-01-23T17:20:46.663Z,21.87
2023-01-23T17:23:15.378Z,22.80
2023-01-23T17:25:59.203Z,19.70
2023-01-23T17:28:28.378Z,20.17
2023-01-23T17:31:00.283Z,25.87
2023-01-23T17:33:31.111Z,19.77
2023-01-23T17:35:59.759Z,21.23
2023-01-23T17:38:31.692Z,21.73
2023-01-23T17:40:59.817Z,18.37
2023-01-23T17:43:28.991Z,20.23
2023-01-23T17:45:58.677Z,38.87
2023-01-23T17:48:28.269Z,19.17
2023-01-23T17:50:56.603Z,22.77
2023-01-23T17:53:24.820Z,19.80
2023-01-23T17:55:53.587Z,21.77
2023-01-23T17:58:22.183Z,24.33
2023-01-23T18:00:52.251Z,23.30
2023-01-23T18:03:24.536Z,21.67
2023-01-23T18:05:52.778Z,27.77
2023-01-23T18:08:22.571Z,20.30
2023-01-23T18:10:52.686Z,24.43
2023-01-23T18:13:24.026Z,25.83
2023-01-23T18:15:58.295Z,21.07
2023-01-23T18:18:30.786Z,23.67
2023-01-23T18:20:59.582Z,20.93
2023-01-23T18:23:28.654Z,22.67
2023-01-23T18:25:59.920Z,23.97
2023-01-23T18:28:29.106Z,21.23
2023-01-23T18:31:00.749Z,20.47
2023-01-23T18:33:47.502Z,22.17
2023-01-23T18:36:20.493Z,23.13
2023-01-23T18:39:01.210Z,22.17
2023-01-23T18:41:30.180Z,22.60
2023-01-23T18:44:04.785Z,23.60
2023-01-23T18:46:33.259Z,23.00
2023-01-23T18:49:03.263Z,19.53
2023-01-23T18:51:38.369Z,20.27
2023-01-23T18:54:13.802Z,19.73
2023-01-23T18:56:45.877Z,18.07
2023-01-23T18:59:18.208Z,22.57
2023-01-23T19:01:53.337Z,22.33
2023-01-23T19:04:31.316Z,20.53
2023-01-23T19:06:59.830Z,20.10
2023-01-23T19:09:30.673Z,21.67
2023-01-23T19:12:02.965Z,20.87
2023-01-23T19:14:43.770Z,23.40
2023-01-23T19:17:14.705Z,19.23
2023-01-23T19:19:50.205Z,20.37
2023-01-23T19:22:19.827Z,21.70
2023-01-23T19:24:48.244Z,21.23
2023-01-23T19:27:21.715Z,22.13
2023-01-23T19:29:50.123Z,19.37
2023-01-23T19:32:18.554Z,21.70
2023-01-23T19:34:48.124Z,21.27
2023-01-23T19:37:16.387Z,20.87
2023-01-23T19:39:44.628Z,20.33
2023-01-23T19:42:16.380Z,21.47
2023-01-23T19:44:44.663Z,21.40
2023-01-23T19:47:12.876Z,24.17
2023-01-23T19:49:41.062Z,21.03
2023-01-23T19:52:13.771Z,22.10
2023-01-23T19:54:41.903Z,21.90
2023-01-23T19:57:10.049Z,19.87
2023-01-23T19:59:38.217Z,24.00
2023-01-23T20:02:17.736Z,21.87
2023-01-23T20:04:45.913Z,27.23
2023-01-23T20:07:15.457Z,22.17
2023-01-23T20:09:43.574Z,23.03
2023-01-23T20:12:13.124Z,20.80
2023-01-23T20:14:41.263Z,23.83
2023-01-23T20:17:09.456Z,19.80
2023-01-23T20:19:37.605Z,22.33
2023-01-23T20:22:05.738Z,22.23
2023-01-23T20:24:35.226Z,22.70
2023-01-23T20:27:03.431Z,23.50
2023-01-23T20:29:31.962Z,21.17
2023-01-23T20:32:00.313Z,22.97
2023-01-23T20:34:28.483Z,25.67
2023-01-23T20:36:56.612Z,23.57
2023-01-23T20:39:24.835Z,21.30
2023-01-23T20:41:54.340Z,27.23
2023-01-23T20:44:22.616Z,24.90
2023-01-23T20:46:50.887Z,23.53
2023-01-23T20:49:19.048Z,22.23
2023-01-23T20:51:47.190Z,25.17
2023-01-23T20:54:14.360Z,29.83
2023-01-23T20:56:43.856Z,25.60
2023-01-23T20:59:23.836Z,25.97
2023-01-23T21:02:09.524Z,25.17
2023-01-23T21:04:39.557Z,27.57
2023-01-23T21:07:07.853Z,28.00
2023-01-23T21:09:36.032Z,28.43
2023-01-23T21:12:04.195Z,25.10
2023-01-23T21:14:34.605Z,26.57
2023-01-23T21:17:05.184Z,26.83
2023-01-23T21:19:33.620Z,26.60
2023-01-23T21:22:01.824Z,25.93
2023-01-23T21:24:34.190Z,26.93
2023-01-23T21:27:02.724Z,26.50
2023-01-23T21:29:31.070Z,27.77
2023-01-23T21:32:00.732Z,27.70
2023-01-23T21:34:28.934Z,25.47
2023-01-23T21:36:57.079Z,28.83
2023-01-23T21:39:25.239Z,26.97
2023-01-23T21:41:53.403Z,23.90
2023-01-23T21:44:21.558Z,26.80
2023-01-23T21:46:50.094Z,27.67
2023-01-23T21:49:19.970Z,24.07
2023-01-23T21:51:48.091Z,26.63
2023-01-23T21:54:16.347Z,25.70
2023-01-23T21:56:44.526Z,26.90
2023-01-23T21:59:12.953Z,26.10
2023-01-23T22:01:42.688Z,30.37
2023-01-23T22:04:13.916Z,22.50
2023-01-23T22:06:44.106Z,28.57
2023-01-23T22:09:15.509Z,25.83
2023-01-23T22:11:43.732Z,23.93
2023-01-23T22:14:11.895Z,26.47
2023-01-23T22:16:48.513Z,23.77
2023-01-23T22:19:18.467Z,24.63
2023-01-23T22:21:48.226Z,23.97
2023-01-23T22:24:16.478Z,28.47
2023-01-23T22:26:44.767Z,22.67
2023-01-23T22:29:13.672Z,27.53
2023-01-23T22:31:41.913Z,22.43
2023-01-23T22:34:10.173Z,25.80
2023-01-23T22:36:38.383Z,28.37
2023-01-23T22:39:07.987Z,24.17
2023-01-23T22:41:36.151Z,22.20
2023-01-23T22:44:04.324Z,22.27
2023-01-23T22:46:32.910Z,21.17
2023-01-23T22:49:01.325Z,23.80
2023-01-23T22:51:29.928Z,21.93
2023-01-23T22:53:58.724Z,21.87
2023-01-23T22:56:29.238Z,23.00
2023-01-23T22:58:57.926Z,23.57
2023-01-23T23:01:27.026Z,21.37
2023-01-23T23:03:55.541Z,20.93
2023-01-23T23:06:23.742Z,22.33
2023-01-23T23:08:52.004Z,23.50
2023-01-23T23:11:21.263Z,23.40
2023-01-23T23:13:51.428Z,23.50
2023-01-23T23:16:21.876Z,22.67
2023-01-23T23:18:51.287Z,23.53
2023-01-23T23:21:20.964Z,21.43
2023-01-23T23:23:49.394Z,23.27
2023-01-23T23:26:22.267Z,23.37
2023-01-23T23:28:51.834Z,21.23
2023-01-23T23:31:20.152Z,20.90
2023-01-23T23:33:48.378Z,22.27
2023-01-23T23:36:16.610Z,18.63
2023-01-23T23:38:44.763Z,24.60
2023-01-23T23:41:13.936Z,24.37
2023-01-23T23:43:42.101Z,20.73
2023-01-23T23:46:12.252Z,21.07
2023-01-23T23:48:40.696Z,24.73
2023-01-23T23:51:09.914Z,21.87
2023-01-23T23:53:38.305Z,20.00
2023-01-23T23:56:07.120Z,22.07
2023-01-23T23:58:36.854Z,19.60
